createdAt,value
2023-02-28T00:01:35.879Z,102865.88
2023-02-28T00:04:03.740Z,102855.25
2023-02-28T00:06:36.922Z,102856.84
2023-02-28T00:09:08.773Z,102854.94
2023-02-28T00:11:39.124Z,102856.38
2023-02-28T00:14:06.631Z,102859.56
2023-02-28T00:16:37.083Z,102862.06
2023-02-28T00:19:04.782Z,102858.44
2023-02-28T00:21:32.420Z,102867.78
2023-02-28T00:24:00.193Z,102864.88
2023-02-28T00:29:20.649Z,102868.91
2023-02-28T00:32:03.412Z,102857.19
2023-02-28T00:34:49.197Z,102857.78
2023-02-28T00:38:00.609Z,102869.38
2023-02-28T00:40:39.641Z,102867.91
2023-02-28T00:43:36.726Z,102871.41
2023-02-28T00:46:05.505Z,102880.72
2023-02-28T00:48:36.967Z,102873.66
2023-02-28T00:51:08.281Z,102871.94
2023-02-28T00:59:19.469Z,102871.16
2023-02-28T01:02:06.068Z,102875.34
2023-02-28T01:07:37.870Z,102883.09
2023-02-28T01:10:12.324Z,102875.13
2023-02-28T01:12:40.888Z,102876.66
2023-02-28T01:15:11.809Z,102881.75
2023-02-28T01:17:42.531Z,102886.72
2023-02-28T01:20:20.240Z,102885.59
2023-02-28T01:22:56.639Z,102876.69
2023-02-28T01:25:45.362Z,102881.75
2023-02-28T01:28:12.717Z,102877.91
2023-02-28T01:30:40.387Z,102875.19
2023-02-28T01:33:07.680Z,102886.44
2023-02-28T01:35:36.828Z,102885.44
2023-02-28T01:38:21.221Z,102880.16
2023-02-28T01:41:02.901Z,102883.75
2023-02-28T01:44:18.961Z,102887.34
2023-02-28T01:46:46.380Z,102876.00
2023-02-28T01:49:41.706Z,102870.81
2023-02-28T01:52:26.882Z,102874.09
2023-02-28T01:55:05.623Z,102873.03
2023-02-28T02:00:53.348Z,102862.69
2023-02-28T02:03:56.474Z,102862.56
2023-02-28T02:06:44.361Z,102860.66
2023-02-28T02:09:13.339Z,102850.31
2023-02-28T02:11:44.420Z,102851.09
2023-02-28T02:14:36.018Z,102851.91
2023-02-28T02:18:02.378Z,102850.84
2023-02-28T02:21:27.665Z,102849.84
2023-02-28T02:24:06.968Z,102845.56
2023-02-28T02:27:17.426Z,102833.78
2023-02-28T02:29:48.810Z,102833.88
2023-02-28T02:32:40.884Z,102833.19
2023-02-28T02:35:31.463Z,102834.00
2023-02-28T02:38:10.042Z,102825.53
2023-02-28T02:41:10.807Z,102828.13
2023-02-28T02:43:48.115Z,102823.41
2023-02-28T02:46:30.026Z,102831.06
2023-02-28T02:49:02.814Z,102824.75
2023-02-28T02:51:42.917Z,102830.81
2023-02-28T02:54:22.071Z,102833.31
2023-02-28T02:56:53.761Z,102840.16
2023-02-28T02:59:25.032Z,102841.84
2023-02-28T03:02:00.912Z,102836.47
2023-02-28T03:04:40.044Z,102840.72
2023-02-28T03:07:16.632Z,102840.72
2023-02-28T03:09:56.299Z,102846.66
2023-02-28T03:12:48.305Z,102845.78
2023-02-28T03:15:33.740Z,102843.19
2023-02-28T03:18:19.568Z,102842.66
2023-02-28T03:21:20.681Z,102843.66
2023-02-28T03:24:06.125Z,102843.75
2023-02-28T03:26:49.675Z,102839.75
2023-02-28T03:29:49.610Z,102838.38
2023-02-28T03:33:46.049Z,102840.66
2023-02-28T03:40:31.590Z,102840.84
2023-02-28T03:43:13.750Z,102836.94
2023-02-28T03:45:51.487Z,102844.03
2023-02-28T03:48:40.124Z,102843.47
2023-02-28T03:51:21.935Z,102843.00
2023-02-28T03:54:11.324Z,102833.69
2023-02-28T03:56:54.103Z,102841.66
2023-02-28T03:59:32.324Z,102840.31
2023-02-28T04:02:00.532Z,102836.03
2023-02-28T04:04:27.900Z,102850.22
2023-02-28T04:07:09.348Z,102850.56
2023-02-28T04:09:36.769Z,102843.69
2023-02-28T04:12:04.595Z,102849.66
2023-02-28T04:14:31.797Z,102843.91
2023-02-28T04:16:58.874Z,102836.47
2023-02-28T04:19:26.071Z,102836.94
2023-02-28T04:21:54.814Z,102840.75
2023-02-28T04:24:25.667Z,102842.78
2023-02-28T04:26:56.726Z,102839.28
2023-02-28T04:29:31.758Z,102844.88
2023-02-28T04:32:01.288Z,102850.66
2023-02-28T04:34:30.955Z,102845.56
2023-02-28T04:37:12.462Z,102851.75
2023-02-28T04:39:40.983Z,102843.34
2023-02-28T04:42:08.336Z,102846.13
2023-02-28T04:44:35.668Z,102854.91
2023-02-28T04:47:02.702Z,102849.81
2023-02-28T04:49:29.886Z,102846.88
2023-02-28T04:51:57.202Z,102851.28
2023-02-28T04:54:24.468Z,102854.75
2023-02-28T04:56:51.972Z,102853.06
2023-02-28T04:59:19.536Z,102857.59
2023-02-28T05:01:49.780Z,102851.50
2023-02-28T05:04:17.459Z,102856.81
2023-02-28T05:06:45.132Z,102851.63
2023-02-28T05:09:13.708Z,102850.94
2023-02-28T05:11:41.599Z,102855.84
2023-02-28T05:14:15.112Z,102858.69
2023-02-28T05:16:42.933Z,102858.78
2023-02-28T05:19:10.469Z,102855.31
2023-02-28T05:21:53.501Z,102860.69
2023-02-28T05:24:23.936Z,102869.38
2023-02-28T05:26:54.110Z,102870.28
2023-02-28T05:29:21.645Z,102863.38
2023-02-28T05:31:49.623Z,102869.47
2023-02-28T05:34:19.847Z,102870.28
2023-02-28T05:36:47.133Z,102875.56
2023-02-28T05:39:14.428Z,102867.00
2023-02-28T05:41:44.842Z,102879.97
2023-02-28T05:44:13.415Z,102872.97
2023-02-28T05:46:41.057Z,102874.66
2023-02-28T05:49:08.206Z,102873.09
2023-02-28T05:51:37.490Z,102878.28
2023-02-28T05:54:05.181Z,102877.59
2023-02-28T05:56:32.858Z,102868.81
2023-02-28T05:58:59.970Z,102880.88
2023-02-28T06:01:42.706Z,102879.06
2023-02-28T06:04:22.364Z,102872.88
2023-02-28T06:06:58.563Z,102872.75
2023-02-28T06:09:26.264Z,102878.63
2023-02-28T06:11:53.742Z,102881.00
2023-02-28T06:14:22.208Z,102880.88
2023-02-28T06:16:49.962Z,102880.00
2023-02-28T06:19:17.648Z,102884.38
2023-02-28T06:21:44.960Z,102886.19
2023-02-28T06:24:12.265Z,102888.78
2023-02-28T06:26:39.659Z,102890.56
2023-02-28T06:29:07.120Z,102888.13
2023-02-28T06:31:34.608Z,102890.91
2023-02-28T06:34:01.986Z,102904.22
2023-02-28T06:36:29.233Z,102898.34
2023-02-28T06:38:59.504Z,102896.75
2023-02-28T06:41:28.909Z,102902.13
2023-02-28T06:43:59.677Z,102902.47
2023-02-28T06:46:27.132Z,102894.25
2023-02-28T06:51:52.566Z,102908.06
2023-02-28T06:54:23.124Z,102908.28
2023-02-28T06:56:55.399Z,102911.19
2023-02-28T06:59:23.097Z,102913.09
2023-02-28T07:01:53.445Z,102914.69
2023-02-28T07:04:49.411Z,102917.47
2023-02-28T07:07:16.868Z,102919.41
2023-02-28T07:09:44.063Z,102922.19
2023-02-28T07:12:17.744Z,102925.13
2023-02-28T07:15:12.620Z,102932.22
2023-02-28T07:21:38.608Z,102941.00
2023-02-28T07:25:29.321Z,102946.34
2023-02-28T07:28:41.961Z,102942.56
2023-02-28T07:31:20.776Z,102941.91
2023-02-28T07:34:10.145Z,102951.53
2023-02-28T07:36:40.196Z,102946.53
2023-02-28T07:39:07.351Z,102942.63
2023-02-28T07:41:35.089Z,102939.44
2023-02-28T07:44:02.713Z,102942.84
2023-02-28T07:46:37.849Z,102937.25
2023-02-28T07:49:07.791Z,102952.75
2023-02-28T07:51:44.134Z,102953.53
2023-02-28T07:54:11.682Z,102953.13
2023-02-28T07:56:38.802Z,102964.13
2023-02-28T07:59:06.340Z,102956.81
2023-02-28T08:01:33.695Z,102972.34
2023-02-28T08:04:01.436Z,102968.13
2023-02-28T08:06:28.759Z,102973.09
2023-02-28T08:08:57.197Z,102965.56
2023-02-28T08:11:25.753Z,102967.38
2023-02-28T08:13:56.734Z,102979.41
2023-02-28T08:16:25.233Z,102976.53
2023-02-28T08:18:57.404Z,102978.09
2023-02-28T08:21:24.511Z,102972.78
2023-02-28T08:23:54.949Z,102971.81
2023-02-28T08:26:25.999Z,102968.22
2023-02-28T08:28:53.258Z,102963.91
2023-02-28T08:31:23.217Z,102977.09
2023-02-28T08:33:53.021Z,102972.13
2023-02-28T08:36:21.904Z,102967.91
2023-02-28T08:38:49.081Z,102968.00
2023-02-28T08:41:17.392Z,102963.09
2023-02-28T08:43:46.039Z,102975.47
2023-02-28T08:46:14.950Z,102971.25
2023-02-28T08:48:42.607Z,102974.16
2023-02-28T08:51:19.542Z,102973.47
2023-02-28T08:53:47.177Z,102967.53
2023-02-28T08:56:17.104Z,102960.03
2023-02-28T08:58:45.984Z,102961.22
2023-02-28T09:01:18.995Z,102966.88
2023-02-28T09:03:48.484Z,102967.91
2023-02-28T09:06:18.112Z,102974.19
2023-02-28T09:08:45.621Z,102969.19
2023-02-28T09:11:15.750Z,102971.97
2023-02-28T09:13:43.113Z,102968.72
2023-02-28T09:16:15.353Z,102980.44
2023-02-28T09:18:42.971Z,102971.88
2023-02-28T09:21:15.233Z,102968.59
2023-02-28T09:23:44.875Z,102979.19
2023-02-28T09:26:18.734Z,102973.47
2023-02-28T09:28:46.334Z,102968.41
2023-02-28T09:31:24.261Z,102968.81
2023-02-28T09:33:55.266Z,102974.19
2023-02-28T09:36:28.962Z,102972.69
2023-02-28T09:39:01.660Z,102970.25
2023-02-28T09:41:52.133Z,102967.03
2023-02-28T09:44:42.845Z,102962.97
2023-02-28T09:47:45.718Z,102967.66
2023-02-28T09:50:28.132Z,102973.25
2023-02-28T09:52:56.889Z,102967.38
2023-02-28T09:55:46.486Z,102957.03
2023-02-28T09:58:36.250Z,102974.94
2023-02-28T10:01:22.751Z,102968.28
2023-02-28T10:04:38.149Z,102973.66
2023-02-28T10:07:44.304Z,102960.91
2023-02-28T10:10:34.042Z,102953.41
2023-02-28T10:13:05.711Z,102959.88
2023-02-28T10:15:35.568Z,102947.13
2023-02-28T10:18:12.839Z,102952.56
2023-02-28T10:20:43.748Z,102945.84
2023-02-28T10:23:24.874Z,102935.56
2023-02-28T10:26:02.381Z,102937.44
2023-02-28T10:28:32.674Z,102940.22
2023-02-28T10:31:02.437Z,102944.72
2023-02-28T10:33:35.812Z,102938.06
2023-02-28T10:36:07.793Z,102924.19
2023-02-28T10:38:40.679Z,102920.09
2023-02-28T10:41:37.201Z,102939.53
2023-02-28T10:44:23.233Z,102936.19
2023-02-28T10:46:51.953Z,102929.63
2023-02-28T10:49:30.868Z,102945.72
2023-02-28T10:52:02.238Z,102939.03
2023-02-28T10:54:36.601Z,102931.38
2023-02-28T10:57:19.387Z,102922.88
2023-02-28T10:59:51.260Z,102917.63
2023-02-28T11:02:39.450Z,102928.34
2023-02-28T11:05:35.320Z,102919.84
2023-02-28T11:08:13.648Z,102918.31
2023-02-28T11:10:45.203Z,102923.69
2023-02-28T11:13:23.263Z,102921.06
2023-02-28T11:16:01.371Z,102919.22
2023-02-28T11:18:33.522Z,102926.31
2023-02-28T11:21:05.523Z,102936.94
2023-02-28T11:23:38.017Z,102926.47
2023-02-28T11:26:06.138Z,102925.75
2023-02-28T11:28:39.454Z,102910.13
2023-02-28T11:31:12.667Z,102922.56
2023-02-28T11:33:56.808Z,102902.56
2023-02-28T11:36:32.635Z,102900.00
2023-02-28T11:39:13.204Z,102902.97
2023-02-28T11:42:06.342Z,102905.78
2023-02-28T11:44:33.555Z,102899.03
2023-02-28T11:47:07.953Z,102893.06
2023-02-28T11:50:04.599Z,102892.47
2023-02-28T11:52:58.855Z,102902.00
2023-02-28T11:55:32.880Z,102893.25
2023-02-28T11:58:34.042Z,102882.91
2023-02-28T12:01:33.741Z,102889.13
2023-02-28T12:04:46.887Z,102887.72
2023-02-28T12:07:50.361Z,102893.09
2023-02-28T12:10:27.719Z,102892.13
2023-02-28T12:13:13.487Z,102876.34
2023-02-28T12:16:01.875Z,102879.56
2023-02-28T12:19:27.312Z,102869.91
2023-02-28T12:22:23.526Z,102867.75
2023-02-28T12:25:07.342Z,102871.66
2023-02-28T12:27:46.801Z,102862.16
2023-02-28T12:30:29.327Z,102860.50
2023-02-28T12:33:13.519Z,102863.38
2023-02-28T12:35:58.026Z,102862.47
2023-02-28T12:38:45.503Z,102875.38
2023-02-28T12:41:43.789Z,102857.91
2023-02-28T12:44:21.463Z,102856.13
2023-02-28T12:47:02.652Z,102840.72
2023-02-28T12:49:51.993Z,102852.34
2023-02-28T12:52:45.488Z,102846.41
2023-02-28T12:55:34.598Z,102838.50
2023-02-28T12:58:53.199Z,102834.91
2023-02-28T13:02:09.502Z,102834.09
2023-02-28T13:04:42.878Z,102827.97
2023-02-28T13:07:25.892Z,102823.78
2023-02-28T13:09:59.344Z,102830.72
2023-02-28T13:12:27.941Z,102817.06
2023-02-28T13:15:29.240Z,102821.53
2023-02-28T13:18:05.286Z,102823.31
2023-02-28T13:20:48.143Z,102822.44
2023-02-28T13:23:53.372Z,102814.66
2023-02-28T13:26:20.893Z,102809.66
2023-02-28T13:28:56.431Z,102812.41
2023-02-28T13:31:25.825Z,102807.22
2023-02-28T13:33:57.775Z,102807.22
2023-02-28T13:36:32.838Z,102802.91
2023-02-28T13:39:24.593Z,102807.22
2023-02-28T13:41:52.042Z,102804.78
2023-02-28T13:44:27.521Z,102795.16
2023-02-28T13:46:55.130Z,102796.03
2023-02-28T13:49:29.416Z,102797.00
2023-02-28T13:52:25.316Z,102792.72
2023-02-28T13:55:23.531Z,102791.97
2023-02-28T13:58:10.250Z,102796.31
2023-02-28T14:01:00.481Z,102801.53
2023-02-28T14:04:16.860Z,102789.16
2023-02-28T14:06:56.673Z,102791.69
2023-02-28T14:09:30.674Z,102788.97
2023-02-28T14:11:58.754Z,102786.31
2023-02-28T14:14:37.986Z,102784.50
2023-02-28T14:17:10.647Z,102786.03
2023-02-28T14:19:39.688Z,102791.34
2023-02-28T14:22:06.549Z,102788.78
2023-02-28T14:24:42.355Z,102793.13
2023-02-28T14:27:27.908Z,102789.59
2023-02-28T14:30:26.106Z,102787.75
2023-02-28T14:33:18.048Z,102783.25
2023-02-28T14:36:37.462Z,102770.94
2023-02-28T14:39:31.926Z,102772.59
2023-02-28T14:42:04.357Z,102773.47
2023-02-28T14:44:31.525Z,102776.09
2023-02-28T14:47:06.721Z,102762.03
2023-02-28T14:49:43.743Z,102767.34
2023-02-28T14:52:11.050Z,102760.41
2023-02-28T14:54:40.216Z,102759.66
2023-02-28T14:57:21.225Z,102770.88
2023-02-28T14:59:59.200Z,102780.44
2023-02-28T15:02:30.815Z,102771.38
2023-02-28T15:05:01.778Z,102769.38
2023-02-28T15:07:32.339Z,102754.44
2023-02-28T15:10:24.703Z,102755.34
2023-02-28T15:13:07.729Z,102761.38
2023-02-28T15:16:04.167Z,102767.50
2023-02-28T15:18:58.514Z,102770.97
2023-02-28T15:21:40.514Z,102768.34
2023-02-28T15:24:24.867Z,102768.16
2023-02-28T15:27:00.070Z,102763.63
2023-02-28T15:29:31.040Z,102763.50
2023-02-28T15:32:08.568Z,102766.91
2023-02-28T15:34:44.282Z,102765.94
2023-02-28T15:37:47.871Z,102769.38
2023-02-28T15:40:37.655Z,102765.81
2023-02-28T15:43:13.443Z,102758.78
2023-02-28T15:45:56.257Z,102756.81
2023-02-28T15:48:27.329Z,102761.09
2023-02-28T15:50:59.884Z,102754.97
2023-02-28T15:53:34.419Z,102758.25
2023-02-28T15:56:07.770Z,102763.56
2023-02-28T15:58:37.386Z,102758.16
2023-02-28T16:01:31.443Z,102764.16
2023-02-28T16:04:07.281Z,102764.66
2023-02-28T16:07:00.890Z,102764.53
2023-02-28T16:09:28.494Z,102759.94
2023-02-28T16:12:00.304Z,102768.53
2023-02-28T16:14:31.122Z,102764.91
2023-02-28T16:17:06.170Z,102759.41
2023-02-28T16:19:34.651Z,102762.72
2023-02-28T16:22:02.513Z,102761.13
2023-02-28T16:24:29.738Z,102751.91
2023-02-28T16:26:58.177Z,102758.34
2023-02-28T16:29:33.240Z,102754.13
2023-02-28T16:32:01.496Z,102748.03
2023-02-28T16:34:28.810Z,102749.66
2023-02-28T16:36:56.181Z,102756.50
2023-02-28T16:39:23.608Z,102759.56
2023-02-28T16:41:54.234Z,102773.88
2023-02-28T16:44:37.029Z,102769.84
2023-02-28T16:47:05.379Z,102774.59
2023-02-28T16:49:33.091Z,102780.31
2023-02-28T16:52:00.338Z,102782.53
2023-02-28T16:54:27.633Z,102770.66
2023-02-28T16:56:54.861Z,102776.31
2023-02-28T16:59:27.327Z,102768.88
2023-02-28T17:01:58.759Z,102780.63
2023-02-28T17:04:27.836Z,102781.03
2023-02-28T17:06:55.210Z,102776.28
2023-02-28T17:09:30.788Z,102783.69
2023-02-28T17:12:04.201Z,102788.56
2023-02-28T17:14:31.362Z,102790.03
2023-02-28T17:17:01.451Z,102794.00
2023-02-28T17:19:29.092Z,102797.34
2023-02-28T17:21:56.275Z,102804.91
2023-02-28T17:24:30.966Z,102802.84
2023-02-28T17:26:59.080Z,102811.31
2023-02-28T17:29:26.116Z,102817.16
2023-02-28T17:31:54.519Z,102814.13
2023-02-28T17:34:22.592Z,102825.25
2023-02-28T17:36:51.986Z,102827.53
2023-02-28T17:39:26.954Z,102837.59
2023-02-28T17:41:56.273Z,102831.94
2023-02-28T17:44:28.835Z,102841.91
2023-02-28T17:46:57.300Z,102843.16
2023-02-28T17:49:28.302Z,102841.81
2023-02-28T17:51:59.099Z,102841.44
2023-02-28T17:55:10.351Z,102850.50
2023-02-28T17:58:08.992Z,102849.94
2023-02-28T18:01:38.193Z,102846.69
2023-02-28T18:07:20.373Z,102843.97
2023-02-28T18:10:04.238Z,102844.47
2023-02-28T18:13:00.651Z,102850.31
2023-02-28T18:18:19.169Z,102845.94
2023-02-28T18:20:49.460Z,102842.69
2023-02-28T18:23:25.187Z,102842.59
2023-02-28T18:26:01.246Z,102844.97
2023-02-28T18:28:37.858Z,102843.81
2023-02-28T18:31:21.928Z,102841.00
2023-02-28T18:34:14.053Z,102832.91
2023-02-28T18:37:12.605Z,102840.63
2023-02-28T18:39:45.985Z,102842.81
2023-02-28T18:42:22.702Z,102839.25
2023-02-28T18:44:50.234Z,102838.03
2023-02-28T18:47:18.850Z,102846.44
2023-02-28T18:50:01.981Z,102846.06
2023-02-28T18:52:31.490Z,102845.72
2023-02-28T18:54:59.120Z,102840.75
2023-02-28T18:57:26.938Z,102844.63
2023-02-28T18:59:54.547Z,102833.56
2023-02-28T19:02:22.029Z,102832.16
2023-02-28T19:04:49.594Z,102833.34
2023-02-28T19:07:16.858Z,102837.34
2023-02-28T19:09:44.101Z,102836.03
2023-02-28T19:12:11.397Z,102841.69
2023-02-28T19:14:38.561Z,102838.81
2023-02-28T19:17:05.701Z,102840.09
2023-02-28T19:19:32.735Z,102841.47
2023-02-28T19:22:02.414Z,102840.16
2023-02-28T19:24:29.860Z,102837.25
2023-02-28T19:26:57.027Z,102851.50
2023-02-28T19:29:24.371Z,102849.59
2023-02-28T19:31:53.542Z,102850.16
2023-02-28T19:34:20.829Z,102854.47
2023-02-28T19:36:48.185Z,102857.66
2023-02-28T19:39:15.497Z,102857.66
2023-02-28T19:41:42.900Z,102856.63
2023-02-28T19:44:10.637Z,102851.75
2023-02-28T19:46:38.227Z,102864.94
2023-02-28T19:49:05.680Z,102853.78
2023-02-28T19:51:34.407Z,102864.38
2023-02-28T19:54:01.862Z,102862.97
2023-02-28T19:56:29.681Z,102864.81
2023-02-28T19:58:58.355Z,102866.38
2023-02-28T20:01:25.636Z,102870.56
2023-02-28T20:03:53.101Z,102859.09
2023-02-28T20:06:20.490Z,102868.56
2023-02-28T20:08:47.805Z,102874.22
2023-02-28T20:11:17.561Z,102872.09
2023-02-28T20:13:48.258Z,102867.50
2023-02-28T20:16:19.161Z,102873.38
2023-02-28T20:18:51.489Z,102870.34
2023-02-28T20:21:19.454Z,102860.53
2023-02-28T20:23:48.744Z,102860.53
2023-02-28T20:26:22.839Z,102864.72
2023-02-28T20:28:50.467Z,102875.91
2023-02-28T20:31:25.558Z,102863.81
2023-02-28T20:33:53.257Z,102864.72
2023-02-28T20:36:21.449Z,102866.53
2023-02-28T20:38:49.782Z,102870.34
2023-02-28T20:41:17.667Z,102867.66
2023-02-28T20:43:46.051Z,102873.84
2023-02-28T20:46:13.967Z,102860.97
2023-02-28T20:48:41.419Z,102860.41
2023-02-28T20:51:12.204Z,102857.03
2023-02-28T20:53:39.654Z,102851.84
2023-02-28T20:56:18.945Z,102858.03
2023-02-28T20:58:52.061Z,102856.31
2023-02-28T21:01:28.994Z,102861.63
2023-02-28T21:04:06.236Z,102862.84
2023-02-28T21:06:40.253Z,102862.03
2023-02-28T21:09:10.347Z,102866.34
2023-02-28T21:11:39.593Z,102866.25
2023-02-28T21:14:12.769Z,102872.09
2023-02-28T21:16:44.534Z,102865.69
2023-02-28T21:19:20.912Z,102860.41
2023-02-28T21:21:48.452Z,102867.25
2023-02-28T21:24:19.435Z,102859.47
2023-02-28T21:26:57.833Z,102858.38
2023-02-28T21:29:25.437Z,102866.16
2023-02-28T21:31:53.351Z,102862.56
2023-02-28T21:34:21.088Z,102862.66
2023-02-28T21:36:48.459Z,102869.75
2023-02-28T21:39:23.216Z,102866.25
2023-02-28T21:41:50.693Z,102867.97
2023-02-28T21:44:23.030Z,102863.66
2023-02-28T21:46:55.055Z,102861.97
2023-02-28T21:49:23.745Z,102862.88
2023-02-28T21:51:50.832Z,102865.47
2023-02-28T21:54:18.217Z,102865.47
2023-02-28T21:56:45.488Z,102862.06
2023-02-28T21:59:12.667Z,102858.72
2023-02-28T22:01:45.369Z,102853.28
2023-02-28T22:04:22.424Z,102854.88
2023-02-28T22:06:58.931Z,102850.41
2023-02-28T22:09:26.397Z,102850.16
2023-02-28T22:11:56.295Z,102856.94
2023-02-28T22:14:23.856Z,102855.03
2023-02-28T22:16:54.156Z,102845.34
2023-02-28T22:19:26.088Z,102856.41
2023-02-28T22:21:54.626Z,102852.00
2023-02-28T22:24:24.501Z,102855.19
2023-02-28T22:26:53.565Z,102856.75
2023-02-28T22:29:21.131Z,102856.34
2023-02-28T22:31:51.772Z,102858.94
2023-02-28T22:34:19.741Z,102860.50
2023-02-28T22:36:47.152Z,102866.47
2023-02-28T22:39:17.561Z,102863.78
2023-02-28T22:41:45.276Z,102862.88
2023-02-28T22:44:12.894Z,102867.06
2023-02-28T22:46:43.461Z,102867.88
2023-02-28T22:49:10.896Z,102870.13
2023-02-28T22:51:38.568Z,102877.09
2023-02-28T22:54:06.311Z,102875.09
2023-02-28T22:56:34.200Z,102875.88
2023-02-28T22:59:02.603Z,102873.06
2023-02-28T23:01:33.164Z,102868.56
2023-02-28T23:04:03.897Z,102862.38
2023-02-28T23:06:42.058Z,102869.00
2023-02-28T23:09:32.431Z,102869.81
2023-02-28T23:12:08.264Z,102873.19
2023-02-28T23:14:45.865Z,102872.97
2023-02-28T23:17:23.598Z,102870.94
2023-02-28T23:19:55.334Z,102872.63
2023-02-28T23:25:26.169Z,102870.63
2023-02-28T23:27:59.451Z,102873.88
2023-02-28T23:30:26.707Z,102878.16
2023-02-28T23:32:56.904Z,102872.97
2023-02-28T23:35:32.806Z,102877.16
2023-02-28T23:38:12.514Z,102876.13
2023-02-28T23:40:45.015Z,102874.19
2023-02-28T23:43:35.902Z,102867.13
2023-02-28T23:46:16.650Z,102871.06
2023-02-28T23:48:47.073Z,102870.03
2023-02-28T23:51:26.285Z,102870.72
2023-02-28T23:53:59.924Z,102871.41
2023-02-28T23:56:45.193Z,102875.44
2023-02-28T23:59:28.940Z,102884.13
